Ashland, Wisconsin
Current Conditions -  °F | °C
As of 4:53 PM on Wednesday 22 Oct 2014 (Local Time) from KASX Reporting Station
Scattered Clouds Scattered Clouds  
Wind Chill: 14°   Ceiling: Unl
Heat Index: 14°   Visibility: 10mi
Dew Point: -1°   Wind: 6mph
Humidity: 36%   Direction: 170°S
Pressure: 30.11"   Gusts: NA
Location:  46.59°N, 90.89°W
Report Text: KASX 222153Z AUTO 17005KT 10SM SCT060 14/M01 A3011 RMK AO2 SLP202 T01441006
Loading
Personal Weather Stations






























Interactive Weather Map
Tropical Storm Tracking
New forecast layout! Learn more

10-Day Weather Forecast

Advertisements
Track Severe Weather on mobile